createdAt,value
2018-02-08T00:00:39.529Z,97960.80
2018-02-08T00:01:44.359Z,97957.92
2018-02-08T00:02:49.062Z,97962.06
2018-02-08T00:03:53.846Z,97959.20
2018-02-08T00:04:58.509Z,97952.23
2018-02-08T00:06:03.203Z,97956.30
2018-02-08T00:07:08.228Z,97956.31
2018-02-08T00:08:12.947Z,97956.30
2018-02-08T00:09:17.788Z,97954.27
2018-02-08T00:10:22.462Z,97960.00
2018-02-08T00:11:27.141Z,97958.36
2018-02-08T00:12:31.809Z,97953.45
2018-02-08T00:13:36.893Z,97950.17
2018-02-08T00:14:41.596Z,97952.64
2018-02-08T00:15:46.291Z,97947.33
2018-02-08T00:16:50.992Z,97957.58
2018-02-08T00:17:55.672Z,97945.30
2018-02-08T00:19:00.359Z,97951.83
2018-02-08T00:20:05.413Z,97952.63
2018-02-08T00:21:10.122Z,97951.00
2018-02-08T00:22:19.125Z,97948.53
2018-02-08T00:23:23.819Z,97951.80
2018-02-08T00:24:28.478Z,97951.82
2018-02-08T00:25:33.151Z,97948.95
2018-02-08T00:26:38.169Z,97949.77
2018-02-08T00:27:42.788Z,97950.17
2018-02-08T00:28:48.504Z,97948.13
2018-02-08T00:29:53.222Z,97945.66
2018-02-08T00:30:57.994Z,97948.94
2018-02-08T00:32:02.655Z,97945.64
2018-02-08T00:33:07.758Z,97940.30
2018-02-08T00:34:12.358Z,97944.02
2018-02-08T00:35:16.984Z,97944.04
2018-02-08T00:36:21.588Z,97944.83
2018-02-08T00:37:26.166Z,97944.44
2018-02-08T00:38:30.889Z,97943.20
2018-02-08T00:39:36.015Z,97937.47
2018-02-08T00:40:40.699Z,97937.87
2018-02-08T00:41:45.340Z,97944.42
2018-02-08T00:42:49.947Z,97944.44
2018-02-08T00:43:54.535Z,97937.89
2018-02-08T00:44:59.143Z,97939.16
2018-02-08T00:46:04.330Z,97941.18
2018-02-08T00:47:09.063Z,97943.25
2018-02-08T00:48:13.816Z,97948.14
2018-02-08T00:49:18.526Z,97947.73
2018-02-08T00:50:23.195Z,97948.98
2018-02-08T00:51:27.918Z,97948.58
2018-02-08T00:52:33.031Z,97946.53
2018-02-08T00:53:37.734Z,97948.57
2018-02-08T00:54:42.433Z,97945.72
2018-02-08T00:55:47.137Z,97946.13
2018-02-08T00:56:51.823Z,97947.77
2018-02-08T00:57:56.524Z,97946.13
2018-02-08T00:59:01.662Z,97950.23
2018-02-08T01:00:06.647Z,97949.41
2018-02-08T01:01:11.439Z,97952.69
2018-02-08T01:02:16.141Z,97951.87
2018-02-08T01:03:20.836Z,97948.98
2018-02-08T01:04:25.509Z,97954.72
2018-02-08T01:05:30.697Z,97959.64
2018-02-08T01:06:35.363Z,97959.23
2018-02-08T01:07:40.045Z,97958.81
2018-02-08T01:08:44.759Z,97957.16
2018-02-08T01:09:49.460Z,97960.88
2018-02-08T01:10:54.921Z,97962.09
2018-02-08T01:11:59.629Z,97962.92
2018-02-08T01:13:04.298Z,97967.01
2018-02-08T01:14:09.065Z,97961.28
2018-02-08T01:15:13.734Z,97968.66
2018-02-08T01:16:18.281Z,97967.41
2018-02-08T01:17:23.363Z,97968.64
2018-02-08T01:18:28.003Z,97965.78
2018-02-08T01:19:32.567Z,97969.46
2018-02-08T01:20:37.211Z,97966.59
2018-02-08T01:21:41.824Z,97970.70
2018-02-08T01:22:46.499Z,97971.11
2018-02-08T01:23:51.599Z,97973.97
2018-02-08T01:24:56.285Z,97975.61
2018-02-08T01:26:00.807Z,97974.80
2018-02-08T01:27:05.377Z,97978.06
2018-02-08T01:28:10.105Z,97985.42
2018-02-08T01:29:14.852Z,97979.29
2018-02-08T01:30:20.031Z,97985.02
2018-02-08T01:31:24.821Z,97987.08
2018-02-08T01:32:29.618Z,97982.98
2018-02-08T01:33:34.550Z,97981.34
2018-02-08T01:34:39.266Z,97982.98
2018-02-08T01:35:44.020Z,97982.98
2018-02-08T01:36:49.162Z,97985.86
2018-02-08T01:37:53.956Z,97985.42
2018-02-08T01:38:58.946Z,97981.74
2018-02-08T01:40:03.698Z,97977.65
2018-02-08T01:41:08.435Z,97980.52
2018-02-08T01:42:13.177Z,97980.92
2018-02-08T01:43:18.231Z,97978.47
2018-02-08T01:44:22.888Z,97978.47
2018-02-08T01:45:27.602Z,97972.33
2018-02-08T01:46:32.310Z,97980.92
2018-02-08T01:47:37.211Z,97974.79
2018-02-08T01:48:41.896Z,97981.31
2018-02-08T01:49:46.991Z,97981.72
2018-02-08T01:50:51.777Z,97969.84
2018-02-08T01:51:56.474Z,97967.80
2018-02-08T01:53:01.157Z,97971.48
2018-02-08T01:54:05.847Z,97973.09
2018-02-08T01:55:10.599Z,97966.53
2018-02-08T01:56:15.588Z,97964.08
2018-02-08T01:57:20.343Z,97965.30
2018-02-08T01:58:25.032Z,97962.44
2018-02-08T01:59:29.722Z,97966.16
2018-02-08T02:00:34.389Z,97962.06
2018-02-08T02:01:39.106Z,97962.03
2018-02-08T02:02:44.133Z,97955.48
2018-02-08T02:03:48.827Z,97959.16
2018-02-08T02:04:53.528Z,97958.75
2018-02-08T02:05:58.234Z,97961.16
2018-02-08T02:07:02.999Z,97956.25
2018-02-08T02:08:07.675Z,97955.42
2018-02-08T02:09:12.791Z,97955.42
2018-02-08T02:10:17.450Z,97955.00
2018-02-08T02:11:22.127Z,97951.28
2018-02-08T02:12:26.978Z,97952.95
2018-02-08T02:13:31.658Z,97950.09
2018-02-08T02:14:36.393Z,97957.41
2018-02-08T02:15:41.483Z,97959.86
2018-02-08T02:16:46.284Z,97954.12
2018-02-08T02:17:51.014Z,97956.22
2018-02-08T02:18:55.797Z,97953.38
2018-02-08T02:20:00.494Z,97953.38
2018-02-08T02:21:05.323Z,97957.45
2018-02-08T02:22:10.526Z,97961.90
2018-02-08T02:23:15.325Z,97953.72
2018-02-08T02:24:20.153Z,97957.00
2018-02-08T02:25:25.631Z,97957.45
2018-02-08T02:26:30.452Z,97952.55
2018-02-08T02:27:35.380Z,97953.36
2018-02-08T02:28:40.541Z,97953.73
2018-02-08T02:29:46.217Z,97953.73
2018-02-08T02:30:52.067Z,97955.00
2018-02-08T02:31:57.635Z,97952.96
2018-02-08T02:33:02.475Z,97953.77
2018-02-08T02:34:07.215Z,97955.77
2018-02-08T02:35:12.382Z,97956.99
2018-02-08T02:36:17.095Z,97955.36
2018-02-08T02:37:21.841Z,97956.56
2018-02-08T02:38:26.652Z,97960.64
2018-02-08T02:39:31.277Z,97956.14
2018-02-08T02:40:35.904Z,97961.05
2018-02-08T02:41:41.092Z,97957.78
2018-02-08T02:42:45.809Z,97963.92
2018-02-08T02:43:50.646Z,97962.69
2018-02-08T02:44:55.462Z,97957.78
2018-02-08T02:46:00.279Z,97963.45
2018-02-08T02:47:05.065Z,97962.63
2018-02-08T02:48:10.212Z,97963.84
2018-02-08T02:49:14.927Z,97962.61
2018-02-08T02:50:19.663Z,97959.33
2018-02-08T02:51:24.455Z,97963.39
2018-02-08T02:52:29.225Z,97964.56
2018-02-08T02:53:34.006Z,97965.77
2018-02-08T02:54:39.333Z,97964.95
2018-02-08T02:55:44.136Z,97955.16
2018-02-08T02:56:48.933Z,97963.33
2018-02-08T02:57:53.731Z,97957.22
2018-02-08T02:58:58.467Z,97960.53
2018-02-08T03:00:03.233Z,97964.61
2018-02-08T03:01:08.535Z,97963.00
2018-02-08T03:02:13.364Z,97966.67
2018-02-08T03:03:18.139Z,97969.52
2018-02-08T03:04:22.934Z,97965.80
2018-02-08T03:05:27.710Z,97963.83
2018-02-08T03:06:32.503Z,97967.13
2018-02-08T03:07:37.578Z,97968.36
2018-02-08T03:08:42.315Z,97968.83
2018-02-08T03:09:47.077Z,97965.55
2018-02-08T03:10:51.866Z,97968.41
2018-02-08T03:11:56.723Z,97965.14
2018-02-08T03:13:01.520Z,97965.16
2018-02-08T03:14:06.653Z,97962.30
2018-02-08T03:15:11.456Z,97965.17
2018-02-08T03:16:16.198Z,97964.77
2018-02-08T03:17:20.923Z,97962.37
2018-02-08T03:18:25.636Z,97958.69
2018-02-08T03:19:30.333Z,97956.64
2018-02-08T03:20:35.372Z,97953.38
2018-02-08T03:21:40.080Z,97959.92
2018-02-08T03:22:44.845Z,97959.11
2018-02-08T03:23:49.630Z,97962.78
2018-02-08T03:24:54.453Z,97964.41
2018-02-08T03:25:59.274Z,97960.31
2018-02-08T03:27:04.615Z,97963.95
2018-02-08T03:28:09.367Z,97966.05
2018-02-08T03:29:14.307Z,97965.23
2018-02-08T03:30:19.268Z,97966.06
2018-02-08T03:31:24.203Z,97973.02
2018-02-08T03:32:28.982Z,97962.39
2018-02-08T03:33:33.798Z,97970.96
2018-02-08T03:34:38.575Z,97974.23
2018-02-08T03:35:43.366Z,97979.16
2018-02-08T03:36:48.146Z,97975.07
2018-02-08T03:37:52.901Z,97973.42
2018-02-08T03:38:57.790Z,97973.43
2018-02-08T03:40:03.003Z,97969.74
2018-02-08T03:41:07.779Z,97966.88
2018-02-08T03:42:12.591Z,97973.41
2018-02-08T03:43:17.366Z,97970.55
2018-02-08T03:44:22.120Z,97974.63
2018-02-08T03:45:26.830Z,97972.59
2018-02-08T03:46:31.934Z,97972.13
2018-02-08T03:47:36.716Z,97970.88
2018-02-08T03:48:41.556Z,97970.05
2018-02-08T03:49:46.319Z,97968.02
2018-02-08T03:50:51.062Z,97973.30
2018-02-08T03:51:55.847Z,97972.50
2018-02-08T03:53:01.034Z,97974.55
2018-02-08T03:54:05.870Z,97970.44
2018-02-08T03:55:10.650Z,97975.28
2018-02-08T03:56:15.378Z,97969.17
2018-02-08T03:57:20.126Z,97977.81
2018-02-08T03:58:24.917Z,97972.50
2018-02-08T03:59:30.151Z,97972.41
2018-02-08T04:00:34.953Z,97971.51
2018-02-08T04:01:39.791Z,97974.36
2018-02-08T04:02:44.627Z,97977.30
2018-02-08T04:03:49.386Z,97976.11
2018-02-08T04:04:54.202Z,97978.58
2018-02-08T04:05:59.492Z,97970.80
2018-02-08T04:07:04.288Z,97975.27
2018-02-08T04:08:09.209Z,97978.95
2018-02-08T04:09:14.064Z,97980.59
2018-02-08T04:10:18.899Z,97981.06
2018-02-08T04:11:23.723Z,97980.20
2018-02-08T04:12:29.014Z,97977.72
2018-02-08T04:13:33.868Z,97979.75
2018-02-08T04:14:38.635Z,97982.20
2018-02-08T04:15:43.412Z,97983.42
2018-02-08T04:16:48.232Z,97987.53
2018-02-08T04:17:52.985Z,97989.61
2018-02-08T04:18:58.096Z,97987.20
2018-02-08T04:20:02.915Z,97985.08
2018-02-08T04:21:07.690Z,97993.66
2018-02-08T04:22:12.422Z,97991.22
2018-02-08T04:23:17.111Z,97996.97
2018-02-08T04:24:21.830Z,97989.66
2018-02-08T04:25:26.920Z,97989.25
2018-02-08T04:26:31.634Z,97988.86
2018-02-08T04:27:36.321Z,97992.55
2018-02-08T04:28:41.039Z,97992.96
2018-02-08T04:29:45.797Z,97998.27
2018-02-08T04:30:50.511Z,97996.66
2018-02-08T04:31:55.622Z,97995.43
2018-02-08T04:33:00.348Z,97994.20
2018-02-08T04:34:05.032Z,97990.89
2018-02-08T04:35:09.680Z,97992.84
2018-02-08T04:36:14.324Z,97995.21
2018-02-08T04:37:19.008Z,97999.25
2018-02-08T04:38:28.381Z,97999.67
2018-02-08T04:39:38.311Z,98000.84
2018-02-08T04:40:48.243Z,97998.68
2018-02-08T04:42:59.966Z,98005.73
2018-02-08T04:44:09.280Z,98000.45
2018-02-08T04:45:19.197Z,98007.04
2018-02-08T04:46:28.966Z,97998.53
2018-02-08T04:47:33.708Z,98002.64
2018-02-08T04:48:38.404Z,97995.72
2018-02-08T04:49:43.103Z,97997.36
2018-02-08T04:50:48.150Z,97998.12
2018-02-08T04:51:52.895Z,97995.67
2018-02-08T04:52:57.600Z,98000.17
2018-02-08T04:54:02.304Z,98000.06
2018-02-08T04:55:07.007Z,98002.00
2018-02-08T04:56:11.694Z,98001.61
2018-02-08T04:57:16.920Z,97999.20
2018-02-08T04:58:21.610Z,98001.66
2018-02-08T04:59:26.484Z,98007.84
2018-02-08T05:00:31.178Z,98009.86
2018-02-08T05:01:35.890Z,98007.38
2018-02-08T05:02:40.801Z,98013.95
2018-02-08T05:03:46.547Z,98013.97
2018-02-08T05:04:51.258Z,98009.45
2018-02-08T05:05:55.983Z,98013.13
2018-02-08T05:07:00.665Z,98008.19
2018-02-08T05:08:05.512Z,98009.38
2018-02-08T05:09:10.228Z,98020.03
2018-02-08T05:10:15.400Z,98015.53
2018-02-08T05:11:20.143Z,98016.31
2018-02-08T05:12:24.884Z,98016.30
2018-02-08T05:13:29.607Z,98018.31
2018-02-08T05:14:34.325Z,98020.80
2018-02-08T05:15:39.039Z,98024.05
2018-02-08T05:16:44.217Z,98021.91
2018-02-08T05:17:49.001Z,98028.71
2018-02-08T05:18:53.707Z,98024.68
2018-02-08T05:19:58.380Z,98030.38
2018-02-08T05:21:03.086Z,98021.05
2018-02-08T05:22:07.788Z,98024.78
2018-02-08T05:23:12.930Z,98026.06
2018-02-08T05:24:17.661Z,98025.30
2018-02-08T05:25:22.393Z,98032.64
2018-02-08T05:26:27.144Z,98032.30
2018-02-08T05:27:32.042Z,98028.63
2018-02-08T05:28:36.786Z,98027.74
2018-02-08T05:29:42.007Z,98035.48
2018-02-08T05:30:46.748Z,98030.14
2018-02-08T05:31:51.479Z,98032.20
2018-02-08T05:32:56.193Z,98036.27
2018-02-08T05:34:00.899Z,98041.94
2018-02-08T05:35:05.627Z,98036.55
2018-02-08T05:36:10.688Z,98036.86
2018-02-08T05:37:15.553Z,98033.95
2018-02-08T05:38:20.371Z,98033.91
2018-02-08T05:39:25.204Z,98039.31
2018-02-08T05:40:30.006Z,98040.19
2018-02-08T05:41:34.799Z,98047.58
2018-02-08T05:42:39.947Z,98048.03
2018-02-08T05:43:44.607Z,98046.34
2018-02-08T05:44:49.292Z,98041.71
2018-02-08T05:45:53.994Z,98045.05
2018-02-08T05:46:58.715Z,98054.92
2018-02-08T05:48:03.399Z,98052.56
2018-02-08T05:49:08.523Z,98047.28
2018-02-08T05:50:13.300Z,98046.49
2018-02-08T05:51:18.119Z,98043.62
2018-02-08T05:52:22.928Z,98043.59
2018-02-08T05:53:27.800Z,98044.63
2018-02-08T05:54:32.639Z,98042.23
2018-02-08T05:55:37.531Z,98044.29
2018-02-08T05:56:42.391Z,98052.42
2018-02-08T05:57:47.116Z,98047.13
2018-02-08T05:58:51.775Z,98046.23
2018-02-08T05:59:56.468Z,98041.70
2018-02-08T06:01:01.168Z,98047.78
2018-02-08T06:02:06.301Z,98046.12
2018-02-08T06:03:10.986Z,98047.45
2018-02-08T06:04:15.653Z,98048.30
2018-02-08T06:05:20.284Z,98052.02
2018-02-08T06:06:25.060Z,98052.88
2018-02-08T06:07:29.765Z,98049.27
2018-02-08T06:08:34.934Z,98052.48
2018-02-08T06:09:39.682Z,98048.61
2018-02-08T06:10:44.464Z,98053.74
2018-02-08T06:11:49.262Z,98051.48
2018-02-08T06:12:54.086Z,98052.80
2018-02-08T06:13:58.899Z,98052.53
2018-02-08T06:15:03.719Z,98053.84
2018-02-08T06:16:08.536Z,98056.02
2018-02-08T06:17:13.327Z,98057.18
2018-02-08T06:18:18.145Z,98055.22
2018-02-08T06:19:22.961Z,98057.73
2018-02-08T06:20:28.308Z,98061.41
2018-02-08T06:21:32.965Z,98060.62
2018-02-08T06:22:37.604Z,98062.28
2018-02-08T06:23:42.154Z,98066.41
2018-02-08T06:24:48.004Z,98064.73
2018-02-08T06:26:04.506Z,98063.10
2018-02-08T06:27:09.214Z,98067.06
2018-02-08T06:28:14.001Z,98068.66
2018-02-08T06:29:18.799Z,98073.91
2018-02-08T06:30:23.544Z,98066.20
2018-02-08T06:31:28.283Z,98071.16
2018-02-08T06:32:33.475Z,98072.77
2018-02-08T06:33:38.206Z,98070.69
2018-02-08T06:34:42.974Z,98073.81
2018-02-08T06:35:47.725Z,98071.33
2018-02-08T06:36:52.490Z,98071.36
2018-02-08T06:37:57.242Z,98068.54
2018-02-08T06:39:02.358Z,98069.47
2018-02-08T06:40:07.096Z,98073.16
2018-02-08T06:41:11.862Z,98078.89
2018-02-08T06:42:16.622Z,98075.70
2018-02-08T06:43:21.339Z,98076.56
2018-02-08T06:44:26.092Z,98072.94
2018-02-08T06:45:31.264Z,98076.09
2018-02-08T06:46:36.004Z,98078.80
2018-02-08T06:47:40.689Z,98080.36
2018-02-08T06:48:46.999Z,98084.05
2018-02-08T06:49:51.734Z,98080.42
2018-02-08T06:50:56.456Z,98080.35
2018-02-08T06:52:01.214Z,98078.30
2018-02-08T06:53:06.195Z,98088.52
2018-02-08T06:54:10.993Z,98088.11
2018-02-08T06:55:15.802Z,98087.36
2018-02-08T06:56:20.629Z,98093.61
2018-02-08T06:57:25.896Z,98096.44
2018-02-08T06:58:30.699Z,98095.83
2018-02-08T06:59:35.504Z,98098.74
2018-02-08T07:00:40.357Z,98095.20
2018-02-08T07:01:45.154Z,98097.56
2018-02-08T07:02:49.942Z,98106.60
2018-02-08T07:03:54.776Z,98101.38
2018-02-08T07:04:59.594Z,98104.26
2018-02-08T07:06:04.418Z,98108.50
2018-02-08T07:07:09.226Z,98105.27
2018-02-08T07:08:14.145Z,98108.90
2018-02-08T07:09:19.752Z,98106.46
2018-02-08T07:10:24.629Z,98102.70
2018-02-08T07:11:30.223Z,98112.88
2018-02-08T07:12:35.144Z,98112.97
2018-02-08T07:13:39.966Z,98115.90
2018-02-08T07:14:44.856Z,98116.12
2018-02-08T07:15:50.302Z,98112.83
2018-02-08T07:16:55.199Z,98119.02
2018-02-08T07:18:00.305Z,98125.23
2018-02-08T07:19:05.103Z,98119.22
2018-02-08T07:20:12.675Z,98123.79
2018-02-08T07:21:17.511Z,98121.74
2018-02-08T07:22:22.764Z,98130.42
2018-02-08T07:23:27.642Z,98133.14
2018-02-08T07:24:32.451Z,98129.00
2018-02-08T07:25:37.279Z,98128.98
2018-02-08T07:26:42.199Z,98132.70
2018-02-08T07:27:46.988Z,98135.09
2018-02-08T07:28:52.256Z,98131.84
2018-02-08T07:29:57.033Z,98136.77
2018-02-08T07:31:01.841Z,98133.63
2018-02-08T07:32:06.635Z,98136.53
2018-02-08T07:33:11.496Z,98136.11
2018-02-08T07:34:16.264Z,98133.14
2018-02-08T07:35:22.166Z,98139.24
2018-02-08T07:36:26.903Z,98144.25
2018-02-08T07:37:31.734Z,98139.75
2018-02-08T07:38:36.564Z,98146.55
2018-02-08T07:39:41.482Z,98138.77
2018-02-08T07:40:46.813Z,98145.31
2018-02-08T07:41:52.994Z,98138.94
2018-02-08T07:42:57.799Z,98142.20
2018-02-08T07:44:02.592Z,98147.92
2018-02-08T07:45:07.400Z,98139.77
2018-02-08T07:46:13.041Z,98140.44
2018-02-08T07:47:17.941Z,98144.62
2018-02-08T07:48:23.259Z,98142.29
2018-02-08T07:49:28.172Z,98149.34
2018-02-08T07:50:33.383Z,98140.61
2018-02-08T07:51:38.191Z,98141.45
2018-02-08T07:52:43.026Z,98145.58
2018-02-08T07:53:47.826Z,98147.09
2018-02-08T07:54:53.146Z,98147.75
2018-02-08T07:55:58.044Z,98152.73
2018-02-08T07:57:03.591Z,98150.38
2018-02-08T07:58:08.502Z,98154.92
2018-02-08T07:59:13.219Z,98150.80
2018-02-08T08:00:18.048Z,98152.39
2018-02-08T08:01:23.036Z,98148.61
2018-02-08T08:02:27.821Z,98146.49
2018-02-08T08:03:33.202Z,98149.02
2018-02-08T08:04:37.820Z,98151.86
2018-02-08T08:05:42.591Z,98151.43
2018-02-08T08:06:47.441Z,98153.48
2018-02-08T08:07:52.509Z,98150.64
2018-02-08T08:08:57.397Z,98147.81
2018-02-08T08:10:03.811Z,98148.34
2018-02-08T08:11:08.641Z,98149.66
2018-02-08T08:12:13.432Z,98155.06
2018-02-08T08:13:19.787Z,98151.86
2018-02-08T08:14:24.999Z,98150.58
2018-02-08T08:15:29.730Z,98148.44
2018-02-08T08:16:34.569Z,98148.37
2018-02-08T08:17:39.330Z,98149.19
2018-02-08T08:18:44.136Z,98151.15
2018-02-08T08:19:48.901Z,98146.27
2018-02-08T08:20:54.439Z,98144.24
2018-02-08T08:21:59.014Z,98148.02
2018-02-08T08:23:03.601Z,98151.41
2018-02-08T08:24:08.330Z,98150.64
2018-02-08T08:25:13.111Z,98152.38
2018-02-08T08:26:17.903Z,98147.93
2018-02-08T08:27:23.241Z,98145.97
2018-02-08T08:28:27.952Z,98154.17
2018-02-08T08:29:32.701Z,98148.37
2018-02-08T08:30:39.116Z,98150.42
2018-02-08T08:31:43.867Z,98150.42
2018-02-08T08:32:48.744Z,98154.16
2018-02-08T08:33:54.049Z,98153.34
2018-02-08T08:34:58.895Z,98149.70
2018-02-08T08:36:03.752Z,98151.74
2018-02-08T08:37:08.537Z,98152.88
2018-02-08T08:38:13.245Z,98154.98
2018-02-08T08:39:18.018Z,98160.34
2018-02-08T08:40:23.217Z,98157.91
2018-02-08T08:41:27.978Z,98158.80
2018-02-08T08:42:32.755Z,98162.06
2018-02-08T08:43:37.507Z,98162.02
2018-02-08T08:44:42.572Z,98162.00
2018-02-08T08:45:47.325Z,98154.90
2018-02-08T08:46:52.681Z,98156.56
2018-02-08T08:47:57.396Z,98160.75
2018-02-08T08:49:02.200Z,98159.22
2018-02-08T08:50:06.919Z,98165.66
2018-02-08T08:51:11.928Z,98159.50
2018-02-08T08:52:16.661Z,98163.19
2018-02-08T08:53:21.844Z,98164.03
2018-02-08T08:54:26.581Z,98162.41
2018-02-08T08:55:31.317Z,98168.20
2018-02-08T08:56:37.384Z,98158.81
2018-02-08T08:57:42.207Z,98160.05
2018-02-08T08:58:46.966Z,98162.92
2018-02-08T08:59:52.129Z,98158.68
2018-02-08T09:00:56.859Z,98161.20
2018-02-08T09:02:01.555Z,98164.00
2018-02-08T09:03:06.372Z,98161.17
2018-02-08T09:04:11.082Z,98161.20
2018-02-08T09:05:15.863Z,98163.64
2018-02-08T09:06:21.003Z,98169.73
2018-02-08T09:07:25.842Z,98162.81
2018-02-08T09:08:30.681Z,98168.67
2018-02-08T09:09:35.495Z,98164.05
2018-02-08T09:10:40.259Z,98172.72
2018-02-08T09:11:45.055Z,98168.16
2018-02-08T09:12:50.300Z,98165.25
2018-02-08T09:13:55.027Z,98168.64
2018-02-08T09:14:59.943Z,98172.30
2018-02-08T09:16:04.712Z,98173.28
2018-02-08T09:17:09.561Z,98170.50
2018-02-08T09:18:14.337Z,98173.80
2018-02-08T09:19:19.662Z,98172.28
2018-02-08T09:20:24.438Z,98167.25
2018-02-08T09:21:29.242Z,98161.94
2018-02-08T09:22:33.960Z,98165.94
2018-02-08T09:23:39.094Z,98168.03
2018-02-08T09:24:43.868Z,98172.13
2018-02-08T09:25:48.904Z,98168.89
2018-02-08T09:26:53.646Z,98170.09
2018-02-08T09:27:58.327Z,98172.95
2018-02-08T09:29:03.064Z,98167.22
2018-02-08T09:30:07.891Z,98164.43
2018-02-08T09:31:12.802Z,98166.09
2018-02-08T09:32:18.269Z,98170.64
2018-02-08T09:33:23.011Z,98169.05
2018-02-08T09:34:27.752Z,98174.78
2018-02-08T09:35:32.523Z,98177.66
2018-02-08T09:36:37.352Z,98178.43
2018-02-08T09:37:42.052Z,98175.56
2018-02-08T09:38:47.100Z,98183.92
2018-02-08T09:39:51.829Z,98179.17
2018-02-08T09:40:56.480Z,98176.65
2018-02-08T09:42:01.175Z,98179.12
2018-02-08T09:43:05.853Z,98180.88
2018-02-08T09:44:10.540Z,98189.55
2018-02-08T09:45:15.570Z,98185.05
2018-02-08T09:46:20.330Z,98190.77
2018-02-08T09:47:25.096Z,98189.97
2018-02-08T09:48:29.824Z,98186.70
2018-02-08T09:49:34.582Z,98188.72
2018-02-08T09:50:40.235Z,98189.52
2018-02-08T09:51:45.796Z,98185.84
2018-02-08T09:52:50.645Z,98189.50
2018-02-08T09:53:55.345Z,98192.02
2018-02-08T09:55:00.143Z,98187.52
2018-02-08T09:56:05.063Z,98189.58
2018-02-08T09:57:09.898Z,98189.89
2018-02-08T09:58:15.260Z,98190.70
2018-02-08T09:59:20.175Z,98187.87
2018-02-08T10:00:25.028Z,98190.74
2018-02-08T10:01:29.994Z,98185.03
2018-02-08T10:02:34.766Z,98191.63
2018-02-08T10:03:39.582Z,98190.39
2018-02-08T10:04:44.931Z,98193.25
2018-02-08T10:05:49.773Z,98187.82
2018-02-08T10:06:54.540Z,98193.15
2018-02-08T10:07:59.250Z,98192.19
2018-02-08T10:09:04.094Z,98191.73
2018-02-08T10:10:09.673Z,98194.14
2018-02-08T10:11:14.774Z,98194.51
2018-02-08T10:12:19.500Z,98200.30
2018-02-08T10:13:24.227Z,98197.20
2018-02-08T10:14:29.095Z,98198.33
2018-02-08T10:15:33.899Z,98200.81
2018-02-08T10:16:38.751Z,98204.30
2018-02-08T10:17:43.821Z,98196.34
2018-02-08T10:18:48.575Z,98207.17
2018-02-08T10:19:53.390Z,98198.74
2018-02-08T10:20:58.135Z,98200.64
2018-02-08T10:22:02.927Z,98201.05
2018-02-08T10:23:07.727Z,98201.19
2018-02-08T10:24:12.870Z,98200.09
2018-02-08T10:25:17.591Z,98203.05
2018-02-08T10:26:22.397Z,98204.50
2018-02-08T10:27:27.181Z,98206.00
2018-02-08T10:28:32.022Z,98213.78
2018-02-08T10:29:36.843Z,98202.84
2018-02-08T10:30:42.031Z,98206.47
2018-02-08T10:31:46.860Z,98211.17
2018-02-08T10:32:51.740Z,98209.27
2018-02-08T10:33:56.541Z,98205.28
2018-02-08T10:35:01.255Z,98205.39
2018-02-08T10:36:05.962Z,98195.39
2018-02-08T10:37:11.057Z,98198.69
2018-02-08T10:38:15.858Z,98195.95
2018-02-08T10:39:20.585Z,98196.38
2018-02-08T10:40:25.310Z,98187.39
2018-02-08T10:41:29.983Z,98188.98
2018-02-08T10:42:34.783Z,98184.78
2018-02-08T10:43:39.997Z,98182.27
2018-02-08T10:44:44.753Z,98181.94
2018-02-08T10:45:49.551Z,98181.05
2018-02-08T10:46:54.339Z,98185.44
2018-02-08T10:47:59.167Z,98184.09
2018-02-08T10:49:04.937Z,98171.39
2018-02-08T10:50:10.771Z,98176.38
2018-02-08T10:51:15.665Z,98173.28
2018-02-08T10:52:20.480Z,98175.27
2018-02-08T10:53:25.305Z,98179.09
2018-02-08T10:54:30.767Z,98179.53
2018-02-08T10:55:35.649Z,98180.12
2018-02-08T10:56:40.727Z,98182.22
2018-02-08T10:57:45.667Z,98177.46
2018-02-08T10:58:50.602Z,98180.95
2018-02-08T10:59:55.447Z,98181.91
2018-02-08T11:01:00.265Z,98185.23
2018-02-08T11:02:05.126Z,98179.71
2018-02-08T11:03:10.220Z,98187.20
2018-02-08T11:04:15.796Z,98181.29
2018-02-08T11:05:20.653Z,98180.40
2018-02-08T11:06:26.031Z,98182.59
2018-02-08T11:07:30.797Z,98178.05
2018-02-08T11:08:35.570Z,98183.20
2018-02-08T11:09:40.828Z,98178.38
2018-02-08T11:10:46.472Z,98178.94
2018-02-08T11:11:51.228Z,98177.77
2018-02-08T11:12:55.962Z,98172.48
2018-02-08T11:14:00.813Z,98171.94
2018-02-08T11:15:05.598Z,98173.48
2018-02-08T11:16:10.691Z,98173.75
2018-02-08T11:17:15.406Z,98171.81
2018-02-08T11:18:20.253Z,98171.45
2018-02-08T11:19:25.016Z,98171.91
2018-02-08T11:20:29.777Z,98168.70
2018-02-08T11:21:34.587Z,98173.20
2018-02-08T11:22:39.675Z,98166.20
2018-02-08T11:23:44.418Z,98171.24
2018-02-08T11:24:49.299Z,98170.86
2018-02-08T11:25:54.101Z,98170.84
2018-02-08T11:26:58.827Z,98167.29
2018-02-08T11:28:04.016Z,98172.22
2018-02-08T11:29:08.737Z,98168.77
2018-02-08T11:30:13.725Z,98166.27
2018-02-08T11:31:18.508Z,98159.78
2018-02-08T11:32:23.209Z,98166.27
2018-02-08T11:33:27.932Z,98170.02
2018-02-08T11:34:33.097Z,98173.53
2018-02-08T11:35:37.848Z,98170.81
2018-02-08T11:36:42.636Z,98175.97
2018-02-08T11:37:47.306Z,98168.67
2018-02-08T11:38:52.028Z,98173.19
2018-02-08T11:39:56.781Z,98173.30
2018-02-08T11:41:02.129Z,98168.17
2018-02-08T11:42:06.902Z,98166.90
2018-02-08T11:43:11.691Z,98170.38
2018-02-08T11:44:16.470Z,98170.60
2018-02-08T11:45:21.224Z,98173.34
2018-02-08T11:46:26.063Z,98169.48
2018-02-08T11:47:31.142Z,98168.72
2018-02-08T11:48:36.008Z,98169.88
2018-02-08T11:49:40.876Z,98171.03
2018-02-08T11:50:45.644Z,98172.50
2018-02-08T11:51:50.508Z,98177.70
2018-02-08T11:52:55.426Z,98174.05
2018-02-08T11:54:00.722Z,98172.05
2018-02-08T11:55:05.552Z,98175.19
2018-02-08T11:56:10.359Z,98169.63
2018-02-08T11:57:15.090Z,98173.72
2018-02-08T11:58:19.705Z,98174.39
2018-02-08T11:59:24.382Z,98166.67
2018-02-08T12:00:29.574Z,98173.50
2018-02-08T12:01:34.398Z,98167.03
2018-02-08T12:02:39.246Z,98159.39
2018-02-08T12:03:44.136Z,98164.14
2018-02-08T12:04:48.943Z,98161.52
2018-02-08T12:05:53.740Z,98162.35
2018-02-08T12:06:58.544Z,98159.95
2018-02-08T12:08:06.158Z,98156.93
2018-02-08T12:09:11.069Z,98156.34
2018-02-08T12:10:15.811Z,98159.31
2018-02-08T12:11:20.524Z,98153.28
2018-02-08T12:12:26.365Z,98160.58
2018-02-08T12:13:31.155Z,98161.41
2018-02-08T12:14:35.870Z,98159.47
2018-02-08T12:15:40.513Z,98157.36
2018-02-08T12:16:45.347Z,98149.63
2018-02-08T12:17:50.282Z,98151.50
2018-02-08T12:18:55.545Z,98156.02
2018-02-08T12:20:00.280Z,98149.47
2018-02-08T12:21:05.162Z,98147.84
2018-02-08T12:22:09.779Z,98151.98
2018-02-08T12:23:14.482Z,98155.55
2018-02-08T12:24:19.147Z,98155.85
2018-02-08T12:25:24.174Z,98150.92
2018-02-08T12:26:28.989Z,98154.45
2018-02-08T12:27:33.868Z,98151.71
2018-02-08T12:28:38.751Z,98152.82
2018-02-08T12:29:43.477Z,98147.78
2018-02-08T12:30:48.206Z,98149.52
2018-02-08T12:31:53.321Z,98143.44
2018-02-08T12:32:58.037Z,98143.34
2018-02-08T12:34:02.786Z,98141.82
2018-02-08T12:35:07.575Z,98142.67
2018-02-08T12:36:12.311Z,98136.81
2018-02-08T12:37:17.022Z,98136.20
2018-02-08T12:38:22.214Z,98139.84
2018-02-08T12:39:26.909Z,98134.78
2018-02-08T12:40:31.676Z,98137.83
2018-02-08T12:41:36.378Z,98137.03
2018-02-08T12:42:41.122Z,98136.05
2018-02-08T12:43:45.900Z,98140.48